createdAt,value
2022-10-22T00:00:18.040Z,22.28
2022-10-22T00:01:18.643Z,22.25
2022-10-22T00:02:19.286Z,22.39
2022-10-22T00:03:19.882Z,22.32
2022-10-22T00:04:20.482Z,22.32
2022-10-22T00:05:21.081Z,22.33
2022-10-22T00:06:21.681Z,22.32
2022-10-22T00:07:22.282Z,22.29
2022-10-22T00:08:22.885Z,22.22
2022-10-22T00:09:23.482Z,22.26
2022-10-22T00:10:24.082Z,22.29
2022-10-22T00:11:24.685Z,22.30
2022-10-22T00:12:25.279Z,22.25
2022-10-22T00:13:25.884Z,22.23
2022-10-22T00:14:26.484Z,22.28
2022-10-22T00:15:27.081Z,22.26
2022-10-22T00:16:27.681Z,22.28
2022-10-22T00:17:28.282Z,22.28
2022-10-22T00:18:28.883Z,22.28
2022-10-22T00:19:29.555Z,22.23
2022-10-22T00:20:30.128Z,22.23
2022-10-22T00:21:30.725Z,22.26
2022-10-22T00:22:31.324Z,22.30
2022-10-22T00:23:31.925Z,22.26
2022-10-22T00:24:32.601Z,22.25
2022-10-22T00:25:34.041Z,22.26
2022-10-22T00:26:34.643Z,22.35
2022-10-22T00:27:35.245Z,22.25
2022-10-22T00:28:35.846Z,22.23
2022-10-22T00:29:36.447Z,22.29
2022-10-22T00:30:37.050Z,22.26
2022-10-22T00:31:38.054Z,22.22
2022-10-22T00:32:39.013Z,22.28
2022-10-22T00:33:39.781Z,22.26
2022-10-22T00:34:40.384Z,22.20
2022-10-22T00:35:41.034Z,22.26
2022-10-22T00:36:41.636Z,22.28
2022-10-22T00:37:42.235Z,22.25
2022-10-22T00:38:42.842Z,22.23
2022-10-22T00:39:43.440Z,22.23
2022-10-22T00:40:44.184Z,22.23
2022-10-22T00:41:44.780Z,22.20
2022-10-22T00:42:45.377Z,22.23
2022-10-22T00:43:45.982Z,22.26
2022-10-22T00:44:46.912Z,22.23
2022-10-22T00:45:47.509Z,22.23
2022-10-22T00:46:48.108Z,22.18
2022-10-22T00:47:48.707Z,22.25
2022-10-22T00:48:49.360Z,22.22
2022-10-22T00:49:49.993Z,22.28
2022-10-22T00:50:50.637Z,22.23
2022-10-22T00:51:51.236Z,22.23
2022-10-22T00:52:51.835Z,22.22
2022-10-22T00:53:52.432Z,22.22
2022-10-22T00:54:53.033Z,22.25
2022-10-22T00:55:53.631Z,22.20
2022-10-22T00:56:54.229Z,22.18
2022-10-22T00:57:55.349Z,22.20
2022-10-22T00:58:55.991Z,22.23
2022-10-22T00:59:56.611Z,22.17
2022-10-22T01:00:57.263Z,22.15
2022-10-22T01:01:57.881Z,22.13
2022-10-22T01:02:58.483Z,22.13
2022-10-22T01:03:59.087Z,22.23
2022-10-22T01:04:59.688Z,22.22
2022-10-22T01:06:00.292Z,22.17
2022-10-22T01:07:00.895Z,22.08
2022-10-22T01:08:01.582Z,22.15
2022-10-22T01:09:02.456Z,22.13
2022-10-22T01:10:03.071Z,22.10
2022-10-22T01:11:03.670Z,22.10
2022-10-22T01:12:04.276Z,22.15
2022-10-22T01:13:04.870Z,22.08
2022-10-22T01:14:05.467Z,22.11
2022-10-22T01:15:06.067Z,22.14
2022-10-22T01:16:06.670Z,22.20
2022-10-22T01:17:07.337Z,22.17
2022-10-22T01:18:07.968Z,22.14
2022-10-22T01:19:08.562Z,22.17
2022-10-22T01:20:09.164Z,22.15
2022-10-22T01:21:09.760Z,22.14
2022-10-22T01:22:10.361Z,22.18
2022-10-22T01:23:10.960Z,22.15
2022-10-22T01:24:11.560Z,22.08
2022-10-22T01:25:12.161Z,22.11
2022-10-22T01:26:12.826Z,22.13
2022-10-22T01:27:13.414Z,22.08
2022-10-22T01:28:14.015Z,22.15
2022-10-22T01:29:14.614Z,22.17
2022-10-22T01:30:15.221Z,22.17
2022-10-22T01:31:15.891Z,22.22
2022-10-22T01:32:16.493Z,22.10
2022-10-22T01:33:17.942Z,22.13
2022-10-22T01:34:18.544Z,22.15
2022-10-22T01:35:19.148Z,22.18
2022-10-22T01:36:20.600Z,22.15
2022-10-22T01:37:21.205Z,22.20
2022-10-22T01:38:22.599Z,22.15
2022-10-22T01:39:24.050Z,22.08
2022-10-22T01:40:24.653Z,22.14
2022-10-22T01:41:25.253Z,22.14
2022-10-22T01:42:25.854Z,22.17
2022-10-22T01:43:26.456Z,22.08
2022-10-22T01:44:27.109Z,22.11
2022-10-22T01:45:27.723Z,22.13
2022-10-22T01:46:28.320Z,22.14
2022-10-22T01:47:28.918Z,22.10
2022-10-22T01:48:29.523Z,22.08
2022-10-22T01:49:31.037Z,22.15
2022-10-22T01:50:31.642Z,22.14
2022-10-22T01:51:32.238Z,22.18
2022-10-22T01:52:32.837Z,22.13
2022-10-22T01:53:33.480Z,22.17
2022-10-22T01:54:34.095Z,22.14
2022-10-22T01:55:34.743Z,22.14
2022-10-22T01:56:35.343Z,22.13
2022-10-22T01:57:35.940Z,22.11
2022-10-22T01:58:36.545Z,22.18
2022-10-22T01:59:37.138Z,22.13
2022-10-22T02:00:38.018Z,22.14
2022-10-22T02:01:38.631Z,22.13
2022-10-22T02:02:39.246Z,22.11
2022-10-22T02:03:39.862Z,22.14
2022-10-22T02:04:40.515Z,22.13
2022-10-22T02:05:41.111Z,22.13
2022-10-22T02:06:41.711Z,22.14
2022-10-22T02:07:42.705Z,22.13
2022-10-22T02:08:43.684Z,22.15
2022-10-22T02:09:44.276Z,22.13
2022-10-22T02:10:44.878Z,22.13
2022-10-22T02:11:45.479Z,22.15
2022-10-22T02:12:46.082Z,22.15
2022-10-22T02:13:47.033Z,22.13
2022-10-22T02:14:48.082Z,22.15
2022-10-22T02:15:48.677Z,22.14
2022-10-22T02:16:49.346Z,22.13
2022-10-22T02:17:49.948Z,22.14
2022-10-22T02:18:50.544Z,22.14
2022-10-22T02:19:51.146Z,22.15
2022-10-22T02:20:51.747Z,22.10
2022-10-22T02:21:52.348Z,22.15
2022-10-22T02:22:52.947Z,22.13
2022-10-22T02:23:53.545Z,22.04
2022-10-22T02:24:54.144Z,22.15
2022-10-22T02:25:54.742Z,22.15
2022-10-22T02:26:55.564Z,22.13
2022-10-22T02:27:56.162Z,22.13
2022-10-22T02:28:56.761Z,22.06
2022-10-22T02:29:57.360Z,22.04
2022-10-22T02:30:57.960Z,22.06
2022-10-22T02:31:58.558Z,22.11
2022-10-22T02:32:59.162Z,22.15
2022-10-22T02:34:00.607Z,22.10
2022-10-22T02:35:01.213Z,22.13
2022-10-22T02:36:01.814Z,22.04
2022-10-22T02:37:02.417Z,22.02
2022-10-22T02:38:03.019Z,22.10
2022-10-22T02:39:03.670Z,22.06
2022-10-22T02:40:04.281Z,22.06
2022-10-22T02:41:04.931Z,22.07
2022-10-22T02:42:05.532Z,22.10
2022-10-22T02:43:06.933Z,22.06
2022-10-22T02:44:07.687Z,22.07
2022-10-22T02:45:08.284Z,22.07
2022-10-22T02:46:08.881Z,22.06
2022-10-22T02:47:09.484Z,22.00
2022-10-22T02:48:10.158Z,22.02
2022-10-22T02:49:10.738Z,22.02
2022-10-22T02:50:11.336Z,22.11
2022-10-22T02:51:11.934Z,22.11
2022-10-22T02:52:12.535Z,22.02
2022-10-22T02:53:13.132Z,22.07
2022-10-22T02:54:13.734Z,22.00
2022-10-22T02:55:14.331Z,22.10
2022-10-22T02:56:14.935Z,22.07
2022-10-22T02:57:15.552Z,22.04
2022-10-22T02:58:16.149Z,22.08
2022-10-22T02:59:16.752Z,22.02
2022-10-22T03:00:17.399Z,22.08
2022-10-22T03:01:18.105Z,22.04
2022-10-22T03:02:18.716Z,22.10
2022-10-22T03:03:19.382Z,22.10
2022-10-22T03:04:19.981Z,22.08
2022-10-22T03:05:20.582Z,22.06
2022-10-22T03:06:21.278Z,22.06
2022-10-22T03:07:21.890Z,22.10
2022-10-22T03:08:22.489Z,22.06
2022-10-22T03:09:24.829Z,22.10
2022-10-22T03:10:24.686Z,22.04
2022-10-22T03:11:25.284Z,22.06
2022-10-22T03:12:25.883Z,22.06
2022-10-22T03:13:26.482Z,22.08
2022-10-22T03:14:27.129Z,22.07
2022-10-22T03:16:28.328Z,22.08
2022-10-22T03:17:28.931Z,22.10
2022-10-22T03:18:29.529Z,22.10
2022-10-22T03:19:30.129Z,22.04
2022-10-22T03:20:30.729Z,22.11
2022-10-22T03:21:31.330Z,22.13
2022-10-22T03:22:31.926Z,22.00
2022-10-22T03:23:32.530Z,22.13
2022-10-22T03:24:33.130Z,22.00
2022-10-22T03:25:33.734Z,22.07
2022-10-22T03:26:34.405Z,22.10
2022-10-22T03:27:35.007Z,22.07
2022-10-22T03:28:35.613Z,22.02
2022-10-22T03:29:36.209Z,22.02
2022-10-22T03:30:36.810Z,21.96
2022-10-22T03:31:37.410Z,22.07
2022-10-22T03:32:38.008Z,22.04
2022-10-22T03:33:38.609Z,22.10
2022-10-22T03:34:39.259Z,22.02
2022-10-22T03:35:39.861Z,22.07
2022-10-22T03:36:40.459Z,21.99
2022-10-22T03:37:41.252Z,22.04
2022-10-22T03:38:42.073Z,22.07
2022-10-22T03:39:42.672Z,22.07
2022-10-22T03:40:43.271Z,22.10
2022-10-22T03:41:43.872Z,22.08
2022-10-22T03:42:44.468Z,22.10
2022-10-22T03:43:45.068Z,22.00
2022-10-22T03:44:45.916Z,22.07
2022-10-22T03:45:46.519Z,21.99
2022-10-22T03:46:47.253Z,22.07
2022-10-22T03:47:47.851Z,22.07
2022-10-22T03:48:48.448Z,22.11
2022-10-22T03:49:49.198Z,22.06
2022-10-22T03:50:49.793Z,22.10
2022-10-22T03:51:50.397Z,22.00
2022-10-22T03:52:50.992Z,21.95
2022-10-22T03:53:51.591Z,22.11
2022-10-22T03:54:52.190Z,22.00
2022-10-22T03:55:52.792Z,22.02
2022-10-22T03:56:53.394Z,22.07
2022-10-22T03:57:53.998Z,22.11
2022-10-22T03:58:54.597Z,22.11
2022-10-22T03:59:55.202Z,22.06
2022-10-22T04:00:55.830Z,22.06
2022-10-22T04:01:56.467Z,22.08
2022-10-22T04:02:57.217Z,22.08
2022-10-22T04:03:57.821Z,22.06
2022-10-22T04:04:58.424Z,22.00
2022-10-22T04:05:59.027Z,22.08
2022-10-22T04:06:59.631Z,22.10
2022-10-22T04:08:00.234Z,22.04
2022-10-22T04:09:00.881Z,22.06
2022-10-22T04:10:01.483Z,22.11
2022-10-22T04:11:02.081Z,22.02
2022-10-22T04:12:02.732Z,22.04
2022-10-22T04:13:03.330Z,22.04
2022-10-22T04:14:03.931Z,22.07
2022-10-22T04:15:04.531Z,22.08
2022-10-22T04:16:05.133Z,22.08
2022-10-22T04:17:05.733Z,22.11
2022-10-22T04:18:06.339Z,22.00
2022-10-22T04:19:06.935Z,22.02
2022-10-22T04:20:07.537Z,22.06
2022-10-22T04:21:08.138Z,22.06
2022-10-22T04:22:08.737Z,22.06
2022-10-22T04:23:09.336Z,21.98
2022-10-22T04:24:09.938Z,22.02
2022-10-22T04:25:10.535Z,22.07
2022-10-22T04:26:11.134Z,22.04
2022-10-22T04:27:11.731Z,22.04
2022-10-22T04:28:12.335Z,22.04
2022-10-22T04:29:15.983Z,21.99
2022-10-22T04:30:14.574Z,21.99
2022-10-22T04:31:15.196Z,22.04
2022-10-22T04:32:15.800Z,22.07
2022-10-22T04:33:16.400Z,22.00
2022-10-22T04:34:17.055Z,22.00
2022-10-22T04:35:17.694Z,21.99
2022-10-22T04:36:18.312Z,22.06
2022-10-22T04:37:18.925Z,22.04
2022-10-22T04:38:19.526Z,22.04
2022-10-22T04:39:20.125Z,22.06
2022-10-22T04:40:20.728Z,22.02
2022-10-22T04:41:21.378Z,21.98
2022-10-22T04:42:21.979Z,22.02
2022-10-22T04:43:22.580Z,21.96
2022-10-22T04:44:23.182Z,21.92
2022-10-22T04:45:23.843Z,21.98
2022-10-22T04:46:24.442Z,21.98
2022-10-22T04:47:25.043Z,22.06
2022-10-22T04:48:25.646Z,21.99
2022-10-22T04:49:26.245Z,22.04
2022-10-22T04:50:26.844Z,22.00
2022-10-22T04:51:27.442Z,22.00
2022-10-22T04:52:28.042Z,22.02
2022-10-22T04:53:28.690Z,21.99
2022-10-22T04:54:32.262Z,22.00
2022-10-22T04:56:31.639Z,21.99
2022-10-22T04:57:32.230Z,21.87
2022-10-22T04:58:32.831Z,22.00
2022-10-22T04:59:33.430Z,21.89
2022-10-22T05:00:34.039Z,22.02
2022-10-22T05:01:37.016Z,21.99
2022-10-22T05:02:36.236Z,21.98
2022-10-22T05:03:36.831Z,21.99
2022-10-22T05:04:37.434Z,21.99
2022-10-22T05:05:38.035Z,21.96
2022-10-22T05:06:38.636Z,21.87
2022-10-22T05:07:39.546Z,22.00
2022-10-22T05:08:40.360Z,21.87
2022-10-22T05:09:40.948Z,21.93
2022-10-22T05:10:41.548Z,21.91
2022-10-22T05:11:42.201Z,21.96
2022-10-22T05:12:42.805Z,21.98
2022-10-22T05:13:43.406Z,21.93
2022-10-22T05:14:44.858Z,21.98
2022-10-22T05:15:45.590Z,21.99
2022-10-22T05:17:47.640Z,21.98
2022-10-22T05:18:48.240Z,21.96
2022-10-22T05:19:48.840Z,21.93
2022-10-22T05:20:49.439Z,21.96
2022-10-22T05:21:50.036Z,21.91
2022-10-22T05:22:50.637Z,21.87
2022-10-22T05:23:51.235Z,21.93
2022-10-22T05:24:51.835Z,21.83
2022-10-22T05:25:52.433Z,22.04
2022-10-22T05:26:53.032Z,21.99
2022-10-22T05:27:56.186Z,21.91
2022-10-22T05:28:55.223Z,21.89
2022-10-22T05:29:55.822Z,22.00
2022-10-22T05:30:56.474Z,21.89
2022-10-22T05:31:57.274Z,21.95
2022-10-22T05:32:57.872Z,21.92
2022-10-22T05:33:59.325Z,21.93
2022-10-22T05:34:59.925Z,21.91
2022-10-22T05:36:00.527Z,21.89
2022-10-22T05:37:01.127Z,21.93
2022-10-22T05:38:01.880Z,21.96
2022-10-22T05:39:02.548Z,21.95
2022-10-22T05:40:18.904Z,21.92
2022-10-22T05:41:04.748Z,21.95
2022-10-22T05:42:05.349Z,21.91
2022-10-22T05:43:06.806Z,21.87
2022-10-22T05:44:07.405Z,21.95
2022-10-22T05:45:08.012Z,21.93
2022-10-22T05:46:08.689Z,21.93
2022-10-22T05:47:09.295Z,21.99
2022-10-22T05:48:09.899Z,21.92
2022-10-22T05:49:11.351Z,21.92
2022-10-22T05:50:11.953Z,21.92
2022-10-22T05:51:12.553Z,22.02
2022-10-22T05:52:13.151Z,21.92
2022-10-22T05:53:13.750Z,21.99
2022-10-22T05:54:14.351Z,22.00
2022-10-22T05:55:15.016Z,21.89
2022-10-22T05:56:15.618Z,21.96
2022-10-22T05:57:16.223Z,21.92
2022-10-22T05:58:16.821Z,22.00
2022-10-22T05:59:17.427Z,21.89
2022-10-22T06:00:18.024Z,21.92
2022-10-22T06:01:18.634Z,22.06
2022-10-22T06:02:19.266Z,21.91
2022-10-22T06:03:19.847Z,21.92
2022-10-22T06:04:20.451Z,22.02
2022-10-22T06:05:21.070Z,22.00
2022-10-22T06:06:21.671Z,21.91
2022-10-22T06:07:22.270Z,22.06
2022-10-22T06:08:22.872Z,21.96
2022-10-22T06:09:23.538Z,21.92
2022-10-22T06:10:24.138Z,21.93
2022-10-22T06:11:24.745Z,21.91
2022-10-22T06:12:25.347Z,21.89
2022-10-22T06:13:25.949Z,21.91
2022-10-22T06:14:26.552Z,22.04
2022-10-22T06:15:27.154Z,22.02
2022-10-22T06:16:27.753Z,21.93
2022-10-22T06:17:28.356Z,21.89
2022-10-22T06:18:28.961Z,21.89
2022-10-22T06:19:29.562Z,21.92
2022-10-22T06:20:30.166Z,21.91
2022-10-22T06:21:30.769Z,21.96
2022-10-22T06:22:31.366Z,21.96
2022-10-22T06:23:31.974Z,21.95
2022-10-22T06:24:32.570Z,21.92
2022-10-22T06:25:33.171Z,21.89
2022-10-22T06:26:33.775Z,21.95
2022-10-22T06:27:34.372Z,21.96
2022-10-22T06:28:34.973Z,21.95
2022-10-22T06:29:35.639Z,22.02
2022-10-22T06:30:36.237Z,21.99
2022-10-22T06:31:36.887Z,21.99
2022-10-22T06:32:37.823Z,21.89
2022-10-22T06:33:38.643Z,21.92
2022-10-22T06:34:39.242Z,21.98
2022-10-22T06:35:39.842Z,21.95
2022-10-22T06:37:42.245Z,22.00
2022-10-22T06:38:43.170Z,21.95
2022-10-22T06:39:43.774Z,21.99
2022-10-22T06:40:44.373Z,21.93
2022-10-22T06:41:45.822Z,21.93
2022-10-22T06:42:46.424Z,22.04
2022-10-22T06:43:47.436Z,21.98
2022-10-22T06:44:48.107Z,21.96
2022-10-22T06:45:48.711Z,21.92
2022-10-22T06:46:50.119Z,21.95
2022-10-22T06:47:50.709Z,21.96
2022-10-22T06:48:51.310Z,21.85
2022-10-22T06:49:51.910Z,21.93
2022-10-22T06:50:52.512Z,22.02
2022-10-22T06:51:53.112Z,21.89
2022-10-22T06:52:53.718Z,21.99
2022-10-22T06:53:54.383Z,21.95
2022-10-22T06:54:54.986Z,21.92
2022-10-22T06:55:55.710Z,21.96
2022-10-22T06:56:56.309Z,21.92
2022-10-22T06:57:57.813Z,21.96
2022-10-22T06:58:58.420Z,21.95
2022-10-22T06:59:59.018Z,21.92
2022-10-22T07:00:59.639Z,21.89
2022-10-22T07:02:00.248Z,21.83
2022-10-22T07:03:00.846Z,21.92
2022-10-22T07:04:01.450Z,21.92
2022-10-22T07:05:02.047Z,21.91
2022-10-22T07:06:02.649Z,21.92
2022-10-22T07:07:03.249Z,21.92
2022-10-22T07:08:03.849Z,21.85
2022-10-22T07:09:04.567Z,21.98
2022-10-22T07:10:05.221Z,21.85
2022-10-22T07:11:05.814Z,21.89
2022-10-22T07:12:06.407Z,21.87
2022-10-22T07:13:06.997Z,21.83
2022-10-22T07:14:07.590Z,21.93
2022-10-22T07:15:08.184Z,21.85
2022-10-22T07:16:08.774Z,21.91
2022-10-22T07:17:09.753Z,21.89
2022-10-22T07:18:10.298Z,21.77
2022-10-22T07:19:10.891Z,21.93
2022-10-22T07:20:11.482Z,21.91
2022-10-22T07:21:12.076Z,21.92
2022-10-22T07:22:12.667Z,21.92
2022-10-22T07:23:13.262Z,21.89
2022-10-22T07:24:13.854Z,21.87
2022-10-22T07:25:14.463Z,21.87
2022-10-22T07:26:15.042Z,21.89
2022-10-22T07:27:15.632Z,21.89
2022-10-22T07:28:16.226Z,21.87
2022-10-22T07:29:16.818Z,21.91
2022-10-22T07:30:17.409Z,21.87
2022-10-22T07:31:18.015Z,21.93
2022-10-22T07:32:22.836Z,21.89
2022-10-22T07:33:20.189Z,21.92
2022-10-22T07:34:21.702Z,21.92
2022-10-22T07:35:22.284Z,21.89
2022-10-22T07:36:22.876Z,21.89
2022-10-22T07:37:23.526Z,21.83
2022-10-22T07:38:24.118Z,21.91
2022-10-22T07:39:24.710Z,21.93
2022-10-22T07:40:25.302Z,21.89
2022-10-22T07:41:26.046Z,21.85
2022-10-22T07:42:26.692Z,21.92
2022-10-22T07:43:27.289Z,21.85
2022-10-22T07:44:27.888Z,21.87
2022-10-22T07:45:28.489Z,21.91
2022-10-22T07:46:29.089Z,21.87
2022-10-22T07:47:29.689Z,21.92
2022-10-22T07:48:30.326Z,21.87
2022-10-22T07:49:30.998Z,21.92
2022-10-22T07:50:31.690Z,21.89
2022-10-22T07:51:32.300Z,21.82
2022-10-22T07:52:32.899Z,21.91
2022-10-22T07:53:33.498Z,21.91
2022-10-22T07:54:34.098Z,21.87
2022-10-22T07:55:34.699Z,21.89
2022-10-22T07:56:35.450Z,21.85
2022-10-22T07:57:36.045Z,21.89
2022-10-22T07:58:36.633Z,21.87
2022-10-22T07:59:37.227Z,21.89
2022-10-22T08:00:37.877Z,21.89
2022-10-22T08:01:38.521Z,21.92
2022-10-22T08:02:39.575Z,21.83
2022-10-22T08:03:40.479Z,21.87
2022-10-22T08:04:41.072Z,21.85
2022-10-22T08:05:41.666Z,21.89
2022-10-22T08:06:45.751Z,21.85
2022-10-22T08:07:43.845Z,21.82
2022-10-22T08:08:44.568Z,21.93
2022-10-22T08:09:45.141Z,21.80
2022-10-22T08:10:45.734Z,21.93
2022-10-22T08:11:46.326Z,21.85
2022-10-22T08:12:47.717Z,21.82
2022-10-22T08:13:48.593Z,21.87
2022-10-22T08:14:49.194Z,21.85
2022-10-22T08:15:51.502Z,21.85
2022-10-22T08:16:51.396Z,21.92
2022-10-22T08:17:51.995Z,21.83
2022-10-22T08:18:52.701Z,21.87
2022-10-22T08:19:53.304Z,21.85
2022-10-22T08:20:53.898Z,21.82
2022-10-22T08:21:54.498Z,21.91
2022-10-22T08:22:55.097Z,21.85
2022-10-22T08:23:55.720Z,21.82
2022-10-22T08:24:56.349Z,21.89
2022-10-22T08:25:56.956Z,21.89
2022-10-22T08:26:57.617Z,21.91
2022-10-22T08:27:58.244Z,21.91
2022-10-22T08:28:58.840Z,21.85
2022-10-22T08:29:59.439Z,21.89
2022-10-22T08:31:00.025Z,21.92
2022-10-22T08:32:00.617Z,21.89
2022-10-22T08:33:01.209Z,21.89
2022-10-22T08:34:01.803Z,21.87
2022-10-22T08:35:02.395Z,21.89
2022-10-22T08:36:03.038Z,21.87
2022-10-22T08:37:03.634Z,21.89
2022-10-22T08:38:04.228Z,21.89
2022-10-22T08:39:04.820Z,21.87
2022-10-22T08:40:05.425Z,21.89
2022-10-22T08:41:06.012Z,21.98
2022-10-22T08:42:06.603Z,21.92
2022-10-22T08:43:07.199Z,21.91
2022-10-22T08:44:07.792Z,21.89
2022-10-22T08:45:08.384Z,21.93
2022-10-22T08:46:08.977Z,21.92
2022-10-22T08:47:10.434Z,21.92
2022-10-22T08:48:11.032Z,21.92
2022-10-22T08:49:11.632Z,21.99
2022-10-22T08:50:12.283Z,21.93
2022-10-22T08:51:12.879Z,21.92
2022-10-22T08:52:13.477Z,21.93
2022-10-22T08:53:14.076Z,21.92
2022-10-22T08:54:14.677Z,21.93
2022-10-22T08:55:15.280Z,21.92
2022-10-22T08:56:15.934Z,21.89
2022-10-22T08:57:16.537Z,21.89
2022-10-22T08:58:17.183Z,21.95
2022-10-22T08:59:17.781Z,21.92
2022-10-22T09:00:18.451Z,21.95
2022-10-22T09:01:19.051Z,21.92
2022-10-22T09:02:19.705Z,21.92
2022-10-22T09:03:20.291Z,21.92
2022-10-22T09:04:20.943Z,21.92
2022-10-22T09:05:21.535Z,21.92
2022-10-22T09:06:22.147Z,21.92
2022-10-22T09:07:22.723Z,21.93
2022-10-22T09:08:23.318Z,21.89
2022-10-22T09:09:23.969Z,21.89
2022-10-22T09:10:24.563Z,21.89
2022-10-22T09:11:25.151Z,21.80
2022-10-22T09:12:25.745Z,21.91
2022-10-22T09:13:26.334Z,21.91
2022-10-22T09:14:26.927Z,21.92
2022-10-22T09:15:27.519Z,21.92
2022-10-22T09:16:28.113Z,21.91
2022-10-22T09:17:28.704Z,21.92
2022-10-22T09:18:29.311Z,21.91
2022-10-22T09:19:29.911Z,21.99
2022-10-22T09:20:30.511Z,21.99
2022-10-22T09:21:31.110Z,21.85
2022-10-22T09:22:31.766Z,21.83
2022-10-22T09:23:32.383Z,21.89
2022-10-22T09:24:33.262Z,21.92
2022-10-22T09:25:34.198Z,21.92
2022-10-22T09:26:34.799Z,21.98
2022-10-22T09:27:35.398Z,21.85
2022-10-22T09:28:35.999Z,21.92
2022-10-22T09:29:36.649Z,21.92
2022-10-22T09:30:37.415Z,21.92
2022-10-22T09:31:38.003Z,21.99
2022-10-22T09:32:38.972Z,21.92
2022-10-22T09:33:39.740Z,21.92
2022-10-22T09:34:40.340Z,21.87
2022-10-22T09:35:40.928Z,21.95
2022-10-22T09:36:41.520Z,21.93
2022-10-22T09:37:42.111Z,21.99
2022-10-22T09:38:42.703Z,21.92
2022-10-22T09:39:43.298Z,21.91
2022-10-22T09:40:43.906Z,21.96
2022-10-22T09:41:44.491Z,21.89
2022-10-22T09:42:45.084Z,21.93
2022-10-22T09:43:45.681Z,21.99
2022-10-22T09:44:48.436Z,21.99
2022-10-22T09:45:48.711Z,21.92
2022-10-22T09:46:49.306Z,21.96
2022-10-22T09:48:01.601Z,22.02
2022-10-22T09:48:51.481Z,21.96
2022-10-22T09:49:52.076Z,21.99
2022-10-22T09:50:52.667Z,21.87
2022-10-22T09:51:53.274Z,21.89
2022-10-22T09:52:53.895Z,22.06
2022-10-22T09:53:54.493Z,22.02
2022-10-22T09:54:55.095Z,21.98
2022-10-22T09:56:57.097Z,21.92
2022-10-22T09:57:57.735Z,21.99
2022-10-22T09:58:58.493Z,21.93
2022-10-22T09:59:59.162Z,21.98
2022-10-22T10:00:59.765Z,21.87
2022-10-22T10:02:13.421Z,21.99
2022-10-22T10:03:02.023Z,21.95
2022-10-22T10:04:04.549Z,22.04
2022-10-22T10:05:04.261Z,22.06
2022-10-22T10:06:06.131Z,22.00
2022-10-22T10:07:07.254Z,22.00
2022-10-22T10:08:07.842Z,21.99
2022-10-22T10:09:08.497Z,22.04
2022-10-22T10:10:09.088Z,22.00
2022-10-22T10:11:09.692Z,22.00
2022-10-22T10:12:10.279Z,22.06
2022-10-22T10:13:10.874Z,22.02
2022-10-22T10:14:11.467Z,22.11
2022-10-22T10:15:12.069Z,22.08
2022-10-22T10:16:12.653Z,22.11
2022-10-22T10:17:13.243Z,22.00
2022-10-22T10:18:13.836Z,22.06
2022-10-22T10:19:14.430Z,22.08
2022-10-22T10:20:15.096Z,22.06
2022-10-22T10:21:15.795Z,22.07
2022-10-22T10:22:16.378Z,22.04
2022-10-22T10:23:17.906Z,22.08
2022-10-22T10:24:18.561Z,22.02
2022-10-22T10:25:19.167Z,22.11
2022-10-22T10:26:19.768Z,22.00
2022-10-22T10:27:20.369Z,22.00
2022-10-22T10:28:20.978Z,22.07
2022-10-22T10:29:21.571Z,22.08
2022-10-22T10:30:22.175Z,22.11
2022-10-22T10:31:22.773Z,22.06
2022-10-22T10:32:24.454Z,21.99
2022-10-22T10:33:24.969Z,22.04
2022-10-22T10:34:25.570Z,22.07
2022-10-22T10:35:26.171Z,22.07
2022-10-22T10:36:26.972Z,22.08
2022-10-22T10:37:27.571Z,22.11
2022-10-22T10:38:29.703Z,22.08
2022-10-22T10:39:29.763Z,22.07
2022-10-22T10:40:30.348Z,22.08
2022-10-22T10:41:30.943Z,21.99
2022-10-22T10:42:31.538Z,22.07
2022-10-22T10:43:32.143Z,22.02
2022-10-22T10:44:32.747Z,22.11
2022-10-22T10:45:33.351Z,21.99
2022-10-22T10:46:36.963Z,22.08
2022-10-22T10:47:35.551Z,22.08
2022-10-22T10:48:36.149Z,22.07
2022-10-22T10:49:37.595Z,22.07
2022-10-22T10:50:38.252Z,22.07
2022-10-22T10:51:38.852Z,22.11
2022-10-22T10:52:39.454Z,22.08
2022-10-22T10:53:40.054Z,22.04
2022-10-22T10:54:40.670Z,22.07
2022-10-22T10:55:41.258Z,22.08
2022-10-22T10:56:41.858Z,22.10
2022-10-22T10:57:42.818Z,22.07
2022-10-22T10:58:43.577Z,22.07
2022-10-22T10:59:45.028Z,22.07
2022-10-22T11:00:45.629Z,22.04
2022-10-22T11:01:46.257Z,22.07
2022-10-22T11:02:46.932Z,22.10
2022-10-22T11:03:47.692Z,22.13
2022-10-22T11:04:48.294Z,22.06
2022-10-22T11:05:48.895Z,22.08
2022-10-22T11:06:49.502Z,21.99
2022-10-22T11:07:54.907Z,22.00
2022-10-22T11:08:51.737Z,21.99
2022-10-22T11:09:53.297Z,22.02
2022-10-22T11:10:53.897Z,22.06
2022-10-22T11:11:54.495Z,22.15
2022-10-22T11:12:55.101Z,22.13
2022-10-22T11:13:55.774Z,22.04
2022-10-22T11:14:56.378Z,22.06
2022-10-22T11:15:56.980Z,22.08
2022-10-22T11:16:57.581Z,22.07
2022-10-22T11:17:58.183Z,22.06
2022-10-22T11:18:58.786Z,22.04
2022-10-22T11:20:00.245Z,22.13
2022-10-22T11:21:00.987Z,22.06
2022-10-22T11:22:01.586Z,22.02
2022-10-22T11:23:18.946Z,22.02
2022-10-22T11:24:03.783Z,22.13
2022-10-22T11:25:04.384Z,22.04
2022-10-22T11:26:04.985Z,22.10
2022-10-22T11:27:06.386Z,22.04
2022-10-22T11:28:11.114Z,22.11
2022-10-22T11:29:08.578Z,22.00
2022-10-22T11:30:09.305Z,22.07
2022-10-22T11:31:09.980Z,22.00
2022-10-22T11:32:10.630Z,22.04
2022-10-22T11:33:11.235Z,22.00
2022-10-22T11:34:32.637Z,22.00
2022-10-22T11:35:14.274Z,22.06
2022-10-22T11:36:15.022Z,22.06
2022-10-22T11:37:15.623Z,22.10
2022-10-22T11:38:16.221Z,22.07
2022-10-22T11:39:16.974Z,22.06
2022-10-22T11:40:17.574Z,21.96
2022-10-22T11:41:18.180Z,22.04
2022-10-22T11:42:18.779Z,22.02
2022-10-22T11:43:19.381Z,22.04
2022-10-22T11:44:19.984Z,22.00
2022-10-22T11:45:20.585Z,22.00
2022-10-22T11:46:21.188Z,22.06
2022-10-22T11:47:21.838Z,22.02
2022-10-22T11:48:22.438Z,22.04
2022-10-22T11:49:23.039Z,22.00
2022-10-22T11:50:23.640Z,22.07
2022-10-22T11:51:24.243Z,22.02
2022-10-22T11:52:24.846Z,22.02
2022-10-22T11:53:25.446Z,22.07
2022-10-22T11:54:26.046Z,22.04
2022-10-22T11:55:26.645Z,22.04
2022-10-22T11:56:27.245Z,22.02
2022-10-22T11:57:27.843Z,22.13
2022-10-22T11:58:28.448Z,22.04
2022-10-22T11:59:29.048Z,22.07
2022-10-22T12:00:29.677Z,22.13
2022-10-22T12:01:30.351Z,22.06
2022-10-22T12:02:30.980Z,22.08
2022-10-22T12:03:31.583Z,22.06
2022-10-22T12:04:32.319Z,22.07
2022-10-22T12:05:32.913Z,22.14
2022-10-22T12:06:33.514Z,22.08
2022-10-22T12:07:34.116Z,22.07
2022-10-22T12:08:34.761Z,22.04
2022-10-22T12:09:35.386Z,22.00
2022-10-22T12:10:35.982Z,22.11
2022-10-22T12:11:36.584Z,22.04
2022-10-22T12:12:37.187Z,22.02
2022-10-22T12:13:37.789Z,22.08
2022-10-22T12:14:39.184Z,22.10
2022-10-22T12:15:39.788Z,22.14
2022-10-22T12:16:56.910Z,22.15
2022-10-22T12:17:41.982Z,22.14
2022-10-22T12:18:42.651Z,22.13
2022-10-22T12:19:43.251Z,22.15
2022-10-22T12:20:43.852Z,22.15
2022-10-22T12:21:44.456Z,22.14
2022-10-22T12:22:45.055Z,22.13
2022-10-22T12:23:45.658Z,22.02
2022-10-22T12:24:46.260Z,22.08
2022-10-22T12:25:46.866Z,22.02
2022-10-22T12:26:47.467Z,22.08
2022-10-22T12:27:48.069Z,22.02
2022-10-22T12:28:48.669Z,22.06
2022-10-22T12:29:49.273Z,22.10
2022-10-22T12:30:49.872Z,22.04
2022-10-22T12:31:50.479Z,22.10
2022-10-22T12:32:51.071Z,22.07
2022-10-22T12:33:51.674Z,22.06
2022-10-22T12:34:53.126Z,22.10
2022-10-22T12:35:53.724Z,22.08
2022-10-22T12:36:54.325Z,22.06
2022-10-22T12:37:54.928Z,22.07
2022-10-22T12:38:56.328Z,22.07
2022-10-22T12:39:56.930Z,22.02
2022-10-22T12:40:57.667Z,22.10
2022-10-22T12:41:58.320Z,22.08
2022-10-22T12:42:59.078Z,22.13
2022-10-22T12:43:59.688Z,22.14
2022-10-22T12:45:00.286Z,22.11
2022-10-22T12:46:00.894Z,22.14
2022-10-22T12:47:01.491Z,22.11
2022-10-22T12:48:02.895Z,22.13
2022-10-22T12:49:03.496Z,22.18
2022-10-22T12:50:04.148Z,22.10
2022-10-22T12:51:04.750Z,22.10
2022-10-22T12:52:05.870Z,22.07
2022-10-22T12:53:06.082Z,22.14
2022-10-22T12:54:06.689Z,22.18
2022-10-22T12:55:07.289Z,22.14
2022-10-22T12:56:07.891Z,22.13
2022-10-22T12:57:08.492Z,22.15
2022-10-22T12:58:09.094Z,22.17
2022-10-22T12:59:09.760Z,22.15
2022-10-22T13:00:10.360Z,22.11
2022-10-22T13:01:11.000Z,22.13
2022-10-22T13:02:11.625Z,22.14
2022-10-22T13:03:12.278Z,22.11
2022-10-22T13:04:12.883Z,22.18
2022-10-22T13:05:13.480Z,22.13
2022-10-22T13:06:14.087Z,22.13